Areia Branca, Brazil
Current Conditions -  °F | °C
As of 8:00 PM on Thursday 20 Nov 2014 (Local Time) from SBAR Reporting Station
Scattered Clouds Scattered Clouds  
Wind Chill: 77°   Ceiling: Unl
Heat Index: 78°   Visibility: 6mi
Dew Point: 75°   Wind: 7mph
Humidity: 94%   Direction: 130°SE
Pressure: 29.94"   Gusts: NA
Location:  10.76°S, 37.32°W
Report Text: SBAR 202300Z 13006KT 9999 FEW014 SCT100 25/24 Q1014
Loading
Personal Weather Stations






























Interactive Weather Map New forecast layout! Learn more

10-Day Weather Forecast

Advertisements
Track Severe Weather on mobile